Terminal Aerodrome Forecast
Issued by NWS Wilmington, OH

Current Version | Previous Version | Graphics & Text | Print | Product List | Glossary On
Versions: 1 2 3 4 5 6 7 8 9 10 11 12 13 14 15 16 17 18 19 20 21 22 23 24 25 26 27 28 29 30 31 32 33 34 35 36 37 38 39 40
000
FTUS41 KILN 222056 AAA
TAFCVG
TAF AMD
KCVG 222056Z 2221/2324 19010KT P6SM -SHRA SCT025 OVC035
      TEMPO 2222/2302 5SM BR BKN020
     FM230300 17010KT P6SM VCSH OVC030
     FM230800 21010KT 4SM -SHRA OVC017
     FM232300 25007KT P6SM -SHRA OVC090=

USA.gov is the U.S. government's official web portal to all federal, state and local government web resources and services.